createdAt,value
2018-09-21T00:02:16.500Z,83.16
2018-09-21T00:04:44.186Z,83.57
2018-09-21T00:07:11.893Z,83.89
2018-09-21T00:09:39.608Z,83.32
2018-09-21T00:12:07.293Z,84.23
2018-09-21T00:14:34.961Z,84.14
2018-09-21T00:17:02.643Z,85.35
2018-09-21T00:19:30.360Z,85.46
2018-09-21T00:21:58.035Z,86.06
2018-09-21T00:24:25.764Z,85.00
2018-09-21T00:26:53.488Z,85.50
2018-09-21T00:29:21.185Z,85.54
2018-09-21T00:31:48.857Z,85.63
2018-09-21T00:34:16.589Z,85.34
2018-09-21T00:36:44.304Z,84.92
2018-09-21T00:39:12.007Z,85.35
2018-09-21T00:41:39.868Z,85.95
2018-09-21T00:44:07.964Z,85.70
2018-09-21T00:46:36.032Z,85.98
2018-09-21T00:49:03.893Z,86.16
2018-09-21T00:51:31.732Z,85.76
2018-09-21T00:53:59.480Z,86.86
2018-09-21T00:56:27.242Z,86.51
2018-09-21T00:58:55.020Z,86.27
2018-09-21T01:01:22.692Z,86.09
2018-09-21T01:03:50.400Z,85.62
2018-09-21T01:06:18.093Z,85.44
2018-09-21T01:08:45.785Z,85.76
2018-09-21T01:11:14.177Z,85.16
2018-09-21T01:13:41.884Z,85.56
2018-09-21T01:16:09.564Z,85.82
2018-09-21T01:18:37.301Z,85.58
2018-09-21T01:21:05.092Z,85.54
2018-09-21T01:23:32.776Z,85.44
2018-09-21T01:26:00.629Z,85.25
2018-09-21T01:28:28.311Z,85.00
2018-09-21T01:30:55.979Z,85.13
2018-09-21T01:33:23.665Z,85.38
2018-09-21T01:35:51.456Z,86.00
2018-09-21T01:38:19.147Z,86.85
2018-09-21T01:40:46.848Z,86.44
2018-09-21T01:43:14.513Z,86.45
2018-09-21T01:45:42.184Z,86.23
2018-09-21T01:48:09.869Z,85.88
2018-09-21T01:50:37.556Z,85.64
2018-09-21T01:53:05.312Z,85.06
2018-09-21T01:55:33.009Z,84.57
2018-09-21T01:58:00.698Z,84.80
2018-09-21T02:00:28.407Z,84.33
2018-09-21T02:02:56.090Z,84.03
2018-09-21T02:05:23.800Z,83.71
2018-09-21T02:07:51.480Z,83.45
2018-09-21T02:10:19.192Z,83.95
2018-09-21T02:12:46.948Z,84.10
2018-09-21T02:15:14.632Z,84.04
2018-09-21T02:17:42.434Z,83.43
2018-09-21T02:20:10.144Z,83.01
2018-09-21T02:22:37.908Z,82.32
2018-09-21T02:25:05.632Z,82.36
2018-09-21T02:27:33.312Z,82.54
2018-09-21T02:30:01.056Z,82.17
2018-09-21T02:32:28.784Z,82.31
2018-09-21T02:34:56.536Z,82.43
2018-09-21T02:37:24.252Z,82.84
2018-09-21T02:39:51.979Z,82.63
2018-09-21T02:42:19.732Z,82.26
2018-09-21T02:44:47.423Z,82.03
2018-09-21T02:47:15.095Z,81.93
2018-09-21T02:49:42.823Z,81.66
2018-09-21T02:52:10.501Z,81.47
2018-09-21T02:54:38.203Z,81.79
2018-09-21T02:57:06.080Z,81.75
2018-09-21T02:59:33.757Z,82.24
2018-09-21T03:02:01.448Z,82.43
2018-09-21T03:04:29.203Z,82.28
2018-09-21T03:06:56.925Z,81.75
2018-09-21T03:09:24.701Z,81.49
2018-09-21T03:11:52.452Z,80.90
2018-09-21T03:14:20.172Z,79.93
2018-09-21T03:16:47.889Z,79.74
2018-09-21T03:19:15.589Z,79.43
2018-09-21T03:21:43.280Z,79.55
2018-09-21T03:24:10.980Z,80.00
2018-09-21T03:26:38.735Z,78.93
2018-09-21T03:29:06.427Z,79.29
2018-09-21T03:31:34.144Z,79.11
2018-09-21T03:34:01.846Z,79.27
2018-09-21T03:36:29.577Z,79.71
2018-09-21T03:38:57.261Z,79.67
2018-09-21T03:41:24.970Z,79.75
2018-09-21T03:43:52.690Z,80.49
2018-09-21T03:46:20.396Z,80.24
2018-09-21T03:48:48.196Z,80.81
2018-09-21T03:51:16.003Z,80.47
2018-09-21T03:53:43.705Z,81.37
2018-09-21T03:56:11.417Z,81.34
2018-09-21T03:58:39.215Z,81.43
2018-09-21T04:01:07.088Z,81.97
2018-09-21T04:03:34.746Z,82.57
2018-09-21T04:06:02.460Z,82.80
2018-09-21T04:08:30.145Z,82.99
2018-09-21T04:10:57.920Z,83.15
2018-09-21T04:13:25.597Z,83.42
2018-09-21T04:15:53.337Z,84.64
2018-09-21T04:18:21.073Z,83.69
2018-09-21T04:20:48.780Z,83.90
2018-09-21T04:23:16.460Z,83.65
2018-09-21T04:25:44.171Z,84.21
2018-09-21T04:28:15.014Z,83.93
2018-09-21T04:30:45.658Z,83.80
2018-09-21T04:33:14.083Z,84.33
2018-09-21T04:35:41.777Z,84.77
2018-09-21T04:38:09.463Z,84.24
2018-09-21T04:40:37.139Z,83.36
2018-09-21T04:43:04.884Z,84.30
2018-09-21T04:45:32.569Z,83.72
2018-09-21T04:48:20.537Z,83.87
2018-09-21T04:50:48.232Z,83.38
2018-09-21T04:53:15.926Z,83.97
2018-09-21T04:55:43.640Z,83.30
2018-09-21T04:58:11.300Z,83.33
2018-09-21T05:00:38.968Z,82.88
2018-09-21T05:03:06.772Z,82.80
2018-09-21T05:05:34.479Z,82.99
2018-09-21T05:08:02.283Z,82.50
2018-09-21T05:10:30.125Z,82.67
2018-09-21T05:12:57.821Z,82.60
2018-09-21T05:15:25.524Z,82.03
2018-09-21T05:17:53.253Z,81.77
2018-09-21T05:20:20.935Z,81.76
2018-09-21T05:22:48.603Z,81.90
2018-09-21T05:25:16.370Z,82.01
2018-09-21T05:27:44.033Z,82.32
2018-09-21T05:30:11.729Z,82.08
2018-09-21T05:32:39.431Z,82.52
2018-09-21T05:35:07.227Z,81.51
2018-09-21T05:37:34.940Z,81.08
2018-09-21T05:40:02.660Z,80.46
2018-09-21T05:42:30.373Z,80.51
2018-09-21T05:44:58.045Z,80.34
2018-09-21T05:47:25.734Z,80.53
2018-09-21T05:49:53.648Z,80.08
2018-09-21T05:52:21.366Z,79.49
2018-09-21T05:54:49.041Z,79.63
2018-09-21T05:57:16.730Z,79.25
2018-09-21T05:59:44.429Z,78.71
2018-09-21T06:02:12.187Z,78.35
2018-09-21T06:04:39.839Z,77.82
2018-09-21T06:07:07.545Z,78.22
2018-09-21T06:09:35.216Z,78.25
2018-09-21T06:12:02.901Z,78.12
2018-09-21T06:14:30.637Z,77.53
2018-09-21T06:16:58.320Z,78.32
2018-09-21T06:19:26.016Z,77.81
2018-09-21T06:21:53.700Z,77.16
2018-09-21T06:24:21.442Z,77.51
2018-09-21T06:26:49.121Z,77.22
2018-09-21T06:29:16.799Z,77.02
2018-09-21T06:31:44.501Z,77.89
2018-09-21T06:34:12.193Z,77.03
2018-09-21T06:36:39.904Z,75.93
2018-09-21T06:39:09.616Z,76.56
2018-09-21T06:41:37.892Z,74.75
2018-09-21T06:44:06.534Z,74.30
2018-09-21T06:46:34.254Z,73.16
2018-09-21T06:49:01.940Z,74.70
2018-09-21T06:51:29.604Z,74.90
2018-09-21T06:53:57.263Z,73.98
2018-09-21T06:56:24.994Z,74.10
2018-09-21T06:58:52.699Z,74.35
2018-09-21T07:01:20.381Z,72.87
2018-09-21T07:03:48.179Z,73.40
2018-09-21T07:06:15.896Z,73.07
2018-09-21T07:08:43.556Z,73.18
2018-09-21T07:11:11.346Z,71.97
2018-09-21T07:13:39.035Z,72.84
2018-09-21T07:16:06.849Z,71.91
2018-09-21T07:18:34.516Z,72.32
2018-09-21T07:21:02.209Z,72.44
2018-09-21T07:23:29.885Z,70.16
2018-09-21T07:25:57.639Z,69.16
2018-09-21T07:28:25.335Z,67.88
2018-09-21T07:30:53.069Z,65.72
2018-09-21T07:33:20.794Z,65.22
2018-09-21T07:35:48.618Z,67.42
2018-09-21T07:38:16.272Z,65.21
2018-09-21T07:40:43.947Z,63.34
2018-09-21T07:43:11.684Z,63.82
2018-09-21T07:45:39.396Z,64.42
2018-09-21T07:48:07.058Z,60.91
2018-09-21T07:50:34.844Z,62.60
2018-09-21T07:53:02.675Z,60.61
2018-09-21T07:55:30.353Z,61.34
2018-09-21T07:57:58.038Z,62.28
2018-09-21T08:00:25.748Z,62.22
2018-09-21T08:02:53.425Z,64.53
2018-09-21T08:05:27.339Z,58.86
2018-09-21T08:07:55.230Z,62.62
2018-09-21T08:10:22.993Z,62.39
2018-09-21T08:12:50.817Z,62.55
2018-09-21T08:15:18.507Z,63.50
2018-09-21T08:17:46.702Z,62.07
2018-09-21T08:20:14.428Z,63.88
2018-09-21T08:22:42.141Z,63.38
2018-09-21T08:25:09.930Z,63.01
2018-09-21T08:27:37.624Z,61.64
2018-09-21T08:30:05.417Z,63.32
2018-09-21T08:32:33.136Z,61.74
2018-09-21T08:35:00.921Z,62.28
2018-09-21T08:37:28.627Z,62.77
2018-09-21T08:39:56.380Z,60.37
2018-09-21T08:42:24.933Z,61.58
2018-09-21T08:44:52.640Z,62.04
2018-09-21T08:47:20.347Z,60.34
2018-09-21T08:49:48.016Z,60.39
2018-09-21T08:52:15.711Z,57.09
2018-09-21T08:54:43.392Z,58.52
2018-09-21T08:57:11.113Z,54.36
2018-09-21T08:59:38.820Z,53.48
2018-09-21T09:02:06.549Z,56.35
2018-09-21T09:04:34.228Z,56.22
2018-09-21T09:07:01.961Z,54.16
2018-09-21T09:09:29.657Z,54.24
2018-09-21T09:11:57.366Z,53.85
2018-09-21T09:14:25.052Z,54.51
2018-09-21T09:16:52.772Z,51.70
2018-09-21T09:19:20.633Z,52.40
2018-09-21T09:21:48.718Z,52.08
2018-09-21T09:24:16.431Z,51.94
2018-09-21T09:26:44.186Z,49.25
2018-09-21T09:29:11.872Z,48.97
2018-09-21T09:31:39.547Z,48.70
2018-09-21T09:34:07.731Z,48.41
2018-09-21T09:36:35.412Z,49.17
2018-09-21T09:39:04.029Z,50.00
2018-09-21T09:41:31.702Z,50.43
2018-09-21T09:43:59.400Z,49.81
2018-09-21T09:46:27.100Z,49.58
2018-09-21T09:48:54.917Z,49.78
2018-09-21T09:51:22.547Z,48.27
2018-09-21T09:53:50.246Z,50.86
2018-09-21T09:56:17.992Z,51.38
2018-09-21T09:58:45.758Z,51.14
2018-09-21T10:01:13.463Z,50.99
2018-09-21T10:03:41.245Z,50.81
2018-09-21T10:06:09.064Z,51.53
2018-09-21T10:08:36.802Z,52.80
2018-09-21T10:11:04.508Z,51.21
2018-09-21T10:13:32.182Z,52.88
2018-09-21T10:15:59.951Z,53.53
2018-09-21T10:18:27.636Z,54.16
2018-09-21T10:20:55.386Z,53.71
2018-09-21T10:23:23.093Z,53.75
2018-09-21T10:25:50.776Z,54.12
2018-09-21T10:28:18.846Z,55.28
2018-09-21T10:30:46.742Z,55.41
2018-09-21T10:33:14.561Z,56.32
2018-09-21T10:35:42.497Z,57.14
2018-09-21T10:38:10.306Z,56.09
2018-09-21T10:40:38.307Z,55.83
2018-09-21T10:43:06.260Z,56.75
2018-09-21T10:45:34.053Z,56.77
2018-09-21T10:48:01.976Z,56.75
2018-09-21T10:50:29.841Z,58.16
2018-09-21T10:52:57.691Z,58.35
2018-09-21T10:55:25.602Z,59.04
2018-09-21T10:57:53.459Z,59.81
2018-09-21T11:00:21.313Z,61.28
2018-09-21T11:02:49.234Z,60.47
2018-09-21T11:05:17.125Z,61.15
2018-09-21T11:07:45.058Z,62.03
2018-09-21T11:10:12.963Z,62.13
2018-09-21T11:12:40.801Z,62.62
2018-09-21T11:15:08.682Z,63.58
2018-09-21T11:17:36.601Z,63.27
2018-09-21T11:20:04.532Z,63.51
2018-09-21T11:22:32.470Z,63.26
2018-09-21T11:25:00.313Z,62.58
2018-09-21T11:27:28.171Z,63.52
2018-09-21T11:29:56.036Z,63.51
2018-09-21T11:32:23.905Z,63.08
2018-09-21T11:34:51.794Z,63.58
2018-09-21T11:37:19.504Z,64.57
2018-09-21T11:39:47.190Z,64.05
2018-09-21T11:42:18.244Z,63.88
2018-09-21T11:44:45.938Z,64.37
2018-09-21T11:47:13.797Z,64.06
2018-09-21T11:49:41.422Z,65.24
2018-09-21T11:52:09.140Z,64.62
2018-09-21T11:54:36.930Z,63.98
2018-09-21T11:57:04.639Z,64.45
2018-09-21T11:59:32.364Z,64.14
2018-09-21T12:02:00.117Z,63.88
2018-09-21T12:04:27.826Z,64.96
2018-09-21T12:06:55.515Z,64.79
2018-09-21T12:09:23.214Z,65.25
2018-09-21T12:11:50.905Z,65.72
2018-09-21T12:14:18.579Z,65.43
2018-09-21T12:16:46.405Z,66.44
2018-09-21T12:19:14.044Z,65.65
2018-09-21T12:21:41.692Z,65.59
2018-09-21T12:24:09.424Z,65.30
2018-09-21T12:26:37.114Z,64.75
2018-09-21T12:29:04.785Z,63.69
2018-09-21T12:31:32.467Z,64.12
2018-09-21T12:34:00.205Z,64.02
2018-09-21T12:36:27.990Z,63.97
2018-09-21T12:38:55.676Z,61.84
2018-09-21T12:41:23.564Z,61.15
2018-09-21T12:43:51.312Z,62.59
2018-09-21T12:46:27.635Z,61.05
2018-09-21T12:48:59.777Z,62.72
2018-09-21T12:51:27.471Z,63.44
2018-09-21T12:53:55.503Z,64.58
2018-09-21T12:56:23.559Z,64.97
2018-09-21T12:58:51.600Z,65.87
2018-09-21T13:01:19.324Z,66.58
2018-09-21T13:03:47.256Z,67.12
2018-09-21T13:06:14.992Z,67.94
2018-09-21T13:08:42.785Z,68.71
2018-09-21T13:11:10.473Z,69.02
2018-09-21T13:13:38.175Z,70.65
2018-09-21T13:16:05.910Z,72.71
2018-09-21T13:18:33.617Z,71.34
2018-09-21T13:21:01.288Z,72.02
2018-09-21T13:23:29.216Z,73.52
2018-09-21T13:25:56.924Z,73.77
2018-09-21T13:28:24.608Z,73.88
2018-09-21T13:30:52.358Z,72.62
2018-09-21T13:33:20.094Z,73.18
2018-09-21T13:35:47.784Z,73.11
2018-09-21T13:38:15.448Z,73.84
2018-09-21T13:40:43.177Z,75.85
2018-09-21T13:43:10.883Z,74.77
2018-09-21T13:45:38.582Z,75.21
2018-09-21T13:48:06.316Z,76.15
2018-09-21T13:50:33.990Z,76.87
2018-09-21T13:53:01.727Z,79.04
2018-09-21T13:55:29.408Z,79.15
2018-09-21T13:57:57.097Z,78.55
2018-09-21T14:00:24.878Z,80.89
2018-09-21T14:02:52.568Z,80.35
2018-09-21T14:05:20.346Z,80.80
2018-09-21T14:07:48.007Z,80.69
2018-09-21T14:10:15.741Z,80.41
2018-09-21T14:12:43.429Z,80.50
2018-09-21T14:15:11.093Z,81.10
2018-09-21T14:17:38.805Z,81.26
2018-09-21T14:20:06.916Z,81.54
2018-09-21T14:22:34.665Z,82.03
2018-09-21T14:25:02.388Z,82.48
2018-09-21T14:27:30.124Z,82.97
2018-09-21T14:29:57.926Z,83.27
2018-09-21T14:32:25.627Z,83.07
2018-09-21T14:34:53.352Z,83.62
2018-09-21T14:37:21.028Z,84.18
2018-09-21T14:39:48.709Z,83.30
2018-09-21T14:42:16.406Z,84.20
2018-09-21T14:44:44.229Z,84.79
2018-09-21T14:47:12.258Z,87.31
2018-09-21T14:49:39.944Z,86.20
2018-09-21T14:52:07.671Z,87.84
2018-09-21T14:54:36.160Z,88.08
2018-09-21T14:57:03.839Z,87.65
2018-09-21T14:59:31.508Z,87.73
2018-09-21T15:01:59.253Z,88.67
2018-09-21T15:04:26.936Z,88.22
2018-09-21T15:06:54.583Z,88.28
2018-09-21T15:09:22.247Z,88.12
2018-09-21T15:11:49.945Z,87.97
2018-09-21T15:14:17.672Z,88.50
2018-09-21T15:16:45.335Z,88.07
2018-09-21T15:19:13.120Z,86.92
2018-09-21T15:21:41.094Z,88.13
2018-09-21T15:24:08.809Z,87.12
2018-09-21T15:26:36.591Z,88.70
2018-09-21T15:29:04.304Z,87.98
2018-09-21T15:31:31.965Z,89.53
2018-09-21T15:33:59.671Z,88.27
2018-09-21T15:36:27.340Z,88.88
2018-09-21T15:38:55.056Z,88.34
2018-09-21T15:41:22.756Z,89.13
2018-09-21T15:43:50.424Z,89.06
2018-09-21T15:46:18.144Z,89.10
2018-09-21T15:48:45.886Z,88.77
2018-09-21T15:51:13.559Z,89.18
2018-09-21T15:53:41.309Z,89.24
2018-09-21T15:56:09.063Z,89.11
2018-09-21T15:58:36.785Z,89.22
2018-09-21T16:01:04.461Z,89.24
2018-09-21T16:03:32.148Z,89.98
2018-09-21T16:05:59.924Z,91.12
2018-09-21T16:08:27.571Z,90.94
2018-09-21T16:10:55.231Z,91.47
2018-09-21T16:13:22.915Z,91.54
2018-09-21T16:15:50.587Z,91.98
2018-09-21T16:18:18.316Z,93.22
2018-09-21T16:20:46.005Z,93.25
2018-09-21T16:23:13.675Z,92.89
2018-09-21T16:25:41.368Z,92.82
2018-09-21T16:28:09.020Z,93.43
2018-09-21T16:30:36.704Z,92.90
2018-09-21T16:33:04.401Z,93.15
2018-09-21T16:35:32.104Z,93.56
2018-09-21T16:37:59.793Z,93.05
2018-09-21T16:40:27.496Z,93.49
2018-09-21T16:42:55.265Z,92.97
2018-09-21T16:45:22.932Z,92.81
2018-09-21T16:47:50.603Z,93.23
2018-09-21T16:50:18.300Z,92.33
2018-09-21T16:52:45.988Z,92.52
2018-09-21T16:55:13.679Z,92.48
2018-09-21T16:57:41.435Z,92.62
2018-09-21T17:00:09.288Z,92.92
2018-09-21T17:02:37.162Z,93.46
2018-09-21T17:05:05.115Z,93.11
2018-09-21T17:07:32.768Z,93.12
2018-09-21T17:10:00.441Z,93.70
2018-09-21T17:12:28.321Z,93.63
2018-09-21T17:14:56.025Z,93.55
2018-09-21T17:17:23.685Z,93.62
2018-09-21T17:19:51.370Z,93.62
2018-09-21T17:22:19.041Z,93.53
2018-09-21T17:24:46.697Z,93.50
2018-09-21T17:27:14.433Z,93.49
2018-09-21T17:29:42.129Z,93.32
2018-09-21T17:32:09.824Z,92.93
2018-09-21T17:34:37.556Z,93.36
2018-09-21T17:37:05.307Z,93.18
2018-09-21T17:39:32.942Z,93.22
2018-09-21T17:42:00.625Z,92.96
2018-09-21T17:44:28.316Z,93.29
2018-09-21T17:46:56.385Z,92.88
2018-09-21T17:49:24.065Z,92.85
2018-09-21T17:51:51.774Z,92.60
2018-09-21T17:54:19.436Z,93.01
2018-09-21T17:56:47.115Z,93.30
2018-09-21T17:59:14.819Z,92.72
2018-09-21T18:01:42.516Z,92.58
2018-09-21T18:04:10.193Z,92.81
2018-09-21T18:06:37.893Z,92.98
2018-09-21T18:09:07.575Z,92.52
2018-09-21T18:11:35.272Z,92.60
2018-09-21T18:14:02.999Z,92.71
2018-09-21T18:16:30.856Z,92.97
2018-09-21T18:18:58.521Z,93.10
2018-09-21T18:21:26.188Z,92.96
2018-09-21T18:23:53.900Z,92.96
2018-09-21T18:26:21.615Z,92.60
2018-09-21T18:28:49.277Z,92.45
2018-09-21T18:31:17.009Z,92.84
2018-09-21T18:33:44.720Z,92.30
2018-09-21T18:36:12.385Z,92.58
2018-09-21T18:38:40.189Z,92.77
2018-09-21T18:41:07.860Z,92.75
2018-09-21T18:43:35.568Z,92.97
2018-09-21T18:46:03.263Z,92.30
2018-09-21T18:48:30.976Z,91.98
2018-09-21T18:50:58.680Z,92.19
2018-09-21T18:53:26.345Z,91.60
2018-09-21T18:55:54.040Z,91.81
2018-09-21T18:58:21.777Z,91.70
2018-09-21T19:00:49.500Z,91.51
2018-09-21T19:03:17.177Z,91.40
2018-09-21T19:05:44.859Z,91.06
2018-09-21T19:08:12.552Z,91.13
2018-09-21T19:10:40.248Z,91.07
2018-09-21T19:13:07.904Z,90.46
2018-09-21T19:15:35.582Z,90.61
2018-09-21T19:18:03.284Z,90.14
2018-09-21T19:20:30.992Z,90.19
2018-09-21T19:22:58.700Z,90.14
2018-09-21T19:25:26.377Z,89.80
2018-09-21T19:27:54.049Z,90.07
2018-09-21T19:30:21.740Z,90.18
2018-09-21T19:32:49.434Z,89.46
2018-09-21T19:35:17.113Z,89.62
2018-09-21T19:37:44.834Z,89.71
2018-09-21T19:40:12.507Z,89.55
2018-09-21T19:42:40.176Z,90.08
2018-09-21T19:45:08.083Z,90.04
2018-09-21T19:47:35.624Z,89.38
2018-09-21T19:50:03.813Z,89.51
2018-09-21T19:52:31.473Z,89.47
2018-09-21T19:54:59.219Z,89.78
2018-09-21T19:57:26.918Z,89.42
2018-09-21T19:59:54.572Z,89.51
2018-09-21T20:02:22.312Z,89.39
2018-09-21T20:04:50.162Z,89.57
2018-09-21T20:07:17.843Z,89.49
2018-09-21T20:09:45.501Z,89.44
2018-09-21T20:12:13.617Z,89.24
2018-09-21T20:14:41.337Z,89.63
2018-09-21T20:17:09.027Z,89.40
2018-09-21T20:19:36.697Z,88.98
2018-09-21T20:22:04.978Z,89.57
2018-09-21T20:24:32.627Z,89.52
2018-09-21T20:27:00.324Z,89.04
2018-09-21T20:29:28.028Z,89.54
2018-09-21T20:32:01.409Z,89.94
2018-09-21T20:34:29.095Z,89.51
2018-09-21T20:36:56.772Z,89.49
2018-09-21T20:39:24.444Z,89.28
2018-09-21T20:41:52.138Z,88.95
2018-09-21T20:44:19.813Z,89.37
2018-09-21T20:46:47.524Z,89.54
2018-09-21T20:49:15.209Z,89.53
2018-09-21T20:51:42.869Z,89.74
2018-09-21T20:54:10.595Z,89.13
2018-09-21T20:56:38.264Z,89.69
2018-09-21T20:59:05.929Z,89.68
2018-09-21T21:01:33.607Z,89.25
2018-09-21T21:04:01.264Z,89.92
2018-09-21T21:06:28.936Z,89.64
2018-09-21T21:08:56.612Z,89.93
2018-09-21T21:11:24.268Z,89.47
2018-09-21T21:13:51.951Z,89.93
2018-09-21T21:16:19.632Z,89.84
2018-09-21T21:18:47.345Z,89.76
2018-09-21T21:21:15.011Z,90.14
2018-09-21T21:23:42.696Z,89.63
2018-09-21T21:26:10.416Z,90.14
2018-09-21T21:28:38.124Z,89.73
2018-09-21T21:31:05.801Z,90.19
2018-09-21T21:33:33.475Z,89.78
2018-09-21T21:36:01.162Z,90.23
2018-09-21T21:38:28.826Z,89.68
2018-09-21T21:40:56.531Z,90.04
2018-09-21T21:43:24.255Z,89.75
2018-09-21T21:45:52.091Z,89.62
2018-09-21T21:48:19.816Z,89.44
2018-09-21T21:50:47.480Z,89.54
2018-09-21T21:53:15.148Z,89.94
2018-09-21T21:55:42.872Z,89.57
2018-09-21T21:58:10.527Z,89.90
2018-09-21T22:00:43.756Z,89.46
2018-09-21T22:03:11.469Z,89.35
2018-09-21T22:05:39.132Z,89.82
2018-09-21T22:08:06.836Z,89.98
2018-09-21T22:10:34.905Z,89.54
2018-09-21T22:13:08.061Z,88.97
2018-09-21T22:15:35.731Z,89.14
2018-09-21T22:18:03.400Z,88.98
2018-09-21T22:20:31.098Z,89.15
2018-09-21T22:22:58.776Z,88.78
2018-09-21T22:25:26.514Z,89.25
2018-09-21T22:27:54.212Z,89.06
2018-09-21T22:30:21.864Z,88.59
2018-09-21T22:32:49.614Z,88.40
2018-09-21T22:35:17.303Z,89.00
2018-09-21T22:37:44.958Z,88.39
2018-09-21T22:40:12.651Z,88.22
2018-09-21T22:42:40.316Z,88.75
2018-09-21T22:45:08.044Z,88.80
2018-09-21T22:47:35.772Z,89.48
2018-09-21T22:50:03.494Z,89.53
2018-09-21T22:52:31.187Z,90.19
2018-09-21T22:54:58.884Z,89.95
2018-09-21T22:57:26.624Z,90.55
2018-09-21T22:59:54.284Z,90.44
2018-09-21T23:02:21.975Z,91.12
2018-09-21T23:04:49.708Z,91.19
2018-09-21T23:07:17.368Z,90.98
2018-09-21T23:09:45.046Z,90.88
2018-09-21T23:12:12.783Z,90.79
2018-09-21T23:14:40.468Z,90.89
2018-09-21T23:17:08.135Z,91.49
2018-09-21T23:19:35.876Z,91.30
2018-09-21T23:22:03.656Z,91.06
2018-09-21T23:24:31.327Z,91.25
2018-09-21T23:26:59.023Z,91.56
2018-09-21T23:29:26.696Z,91.88
2018-09-21T23:31:54.432Z,91.60
2018-09-21T23:34:22.209Z,91.81
2018-09-21T23:36:49.904Z,92.02
2018-09-21T23:39:17.643Z,91.63
2018-09-21T23:41:45.328Z,91.61
2018-09-21T23:44:13.000Z,91.85
2018-09-21T23:46:40.668Z,91.20
2018-09-21T23:49:08.399Z,91.00
2018-09-21T23:51:36.061Z,90.98
2018-09-21T23:54:03.818Z,91.33
2018-09-21T23:56:31.616Z,91.38
2018-09-21T23:58:59.284Z,91.69
